sensor_id;sensor_type;location;lat;lon;timestamp;temperature;humidity
30399;DHT22;17195;50.838;7.214;2023-08-06T00:01:49;15.70;99.90
30399;DHT22;17195;50.838;7.214;2023-08-06T00:04:14;15.70;99.90
30399;DHT22;17195;50.838;7.214;2023-08-06T00:06:40;15.60;99.90
30399;DHT22;17195;50.838;7.214;2023-08-06T00:09:06;15.60;99.90
30399;DHT22;17195;50.838;7.214;2023-08-06T00:11:32;15.50;99.90
30399;DHT22;17195;50.838;7.214;2023-08-06T00:13:57;15.40;99.90
30399;DHT22;17195;50.838;7.214;2023-08-06T00:16:23;15.40;99.90
30399;DHT22;17195;50.838;7.214;2023-08-06T00:18:48;15.30;99.90
30399;DHT22;17195;50.838;7.214;2023-08-06T00:21:14;15.40;99.90
30399;DHT22;17195;50.838;7.214;2023-08-06T00:23:40;15.40;99.90
30399;DHT22;17195;50.838;7.214;2023-08-06T00:26:06;15.30;99.90
30399;DHT22;17195;50.838;7.214;2023-08-06T00:28:32;15.30;99.90
30399;DHT22;17195;50.838;7.214;2023-08-06T00:30:57;15.30;99.90
30399;DHT22;17195;50.838;7.214;2023-08-06T00:33:24;15.20;99.90
30399;DHT22;17195;50.838;7.214;2023-08-06T00:35:50;15.10;99.90
30399;DHT22;17195;50.838;7.214;2023-08-06T00:38:15;15.10;99.90
30399;DHT22;17195;50.838;7.214;2023-08-06T00:40:41;15.10;99.90
30399;DHT22;17195;50.838;7.214;2023-08-06T00:43:07;15.00;99.90
30399;DHT22;17195;50.838;7.214;2023-08-06T00:45:37;15.10;99.90
30399;DHT22;17195;50.838;7.214;2023-08-06T00:48:04;15.10;99.90
30399;DHT22;17195;50.838;7.214;2023-08-06T00:50:30;15.10;99.90
30399;DHT22;17195;50.838;7.214;2023-08-06T00:52:56;15.00;99.90
30399;DHT22;17195;50.838;7.214;2023-08-06T00:55:22;15.00;99.90
30399;DHT22;17195;50.838;7.214;2023-08-06T00:57:48;15.00;99.90
30399;DHT22;17195;50.838;7.214;2023-08-06T01:00:14;15.00;99.90
30399;DHT22;17195;50.838;7.214;2023-08-06T01:02:39;15.00;99.90
30399;DHT22;17195;50.838;7.214;2023-08-06T01:05:05;15.10;99.90
30399;DHT22;17195;50.838;7.214;2023-08-06T01:07:51;15.10;99.90
30399;DHT22;17195;50.838;7.214;2023-08-06T01:13:24;15.20;99.90
30399;DHT22;17195;50.838;7.214;2023-08-06T01:15:55;15.20;99.90
30399;DHT22;17195;50.838;7.214;2023-08-06T01:18:25;15.20;99.90
30399;DHT22;17195;50.838;7.214;2023-08-06T01:20:50;15.30;99.90
30399;DHT22;17195;50.838;7.214;2023-08-06T01:23:16;15.30;99.90
30399;DHT22;17195;50.838;7.214;2023-08-06T01:29:25;15.40;99.90
30399;DHT22;17195;50.838;7.214;2023-08-06T01:31:44;15.40;99.90
30399;DHT22;17195;50.838;7.214;2023-08-06T01:34:17;15.30;99.90
30399;DHT22;17195;50.838;7.214;2023-08-06T01:36:45;15.40;99.90
30399;DHT22;17195;50.838;7.214;2023-08-06T01:39:10;15.40;99.90
30399;DHT22;17195;50.838;7.214;2023-08-06T01:41:36;15.40;99.90
30399;DHT22;17195;50.838;7.214;2023-08-06T01:44:02;15.40;99.90
30399;DHT22;17195;50.838;7.214;2023-08-06T01:46:27;15.40;99.90
30399;DHT22;17195;50.838;7.214;2023-08-06T01:48:53;15.30;99.90
30399;DHT22;17195;50.838;7.214;2023-08-06T01:51:18;15.30;99.90
30399;DHT22;17195;50.838;7.214;2023-08-06T01:53:44;15.30;99.90
30399;DHT22;17195;50.838;7.214;2023-08-06T01:56:09;15.40;99.90
30399;DHT22;17195;50.838;7.214;2023-08-06T01:58:35;15.30;99.90
30399;DHT22;17195;50.838;7.214;2023-08-06T02:01:01;15.30;99.90
30399;DHT22;17195;50.838;7.214;2023-08-06T02:03:27;15.20;99.90
30399;DHT22;17195;50.838;7.214;2023-08-06T02:05:53;15.20;99.90
30399;DHT22;17195;50.838;7.214;2023-08-06T02:08:18;15.10;99.90
30399;DHT22;17195;50.838;7.214;2023-08-06T02:10:44;15.10;99.90
30399;DHT22;17195;50.838;7.214;2023-08-06T02:13:10;15.00;99.90
30399;DHT22;17195;50.838;7.214;2023-08-06T02:15:35;15.00;99.90
30399;DHT22;17195;50.838;7.214;2023-08-06T02:18:01;15.00;99.90
30399;DHT22;17195;50.838;7.214;2023-08-06T02:20:27;15.00;99.90
30399;DHT22;17195;50.838;7.214;2023-08-06T02:22:52;14.90;99.90
30399;DHT22;17195;50.838;7.214;2023-08-06T02:25:18;14.90;99.90
30399;DHT22;17195;50.838;7.214;2023-08-06T02:27:43;14.90;99.90
30399;DHT22;17195;50.838;7.214;2023-08-06T02:30:09;14.80;99.90
30399;DHT22;17195;50.838;7.214;2023-08-06T02:32:34;14.80;99.90
30399;DHT22;17195;50.838;7.214;2023-08-06T02:35:01;14.80;99.90
30399;DHT22;17195;50.838;7.214;2023-08-06T02:37:27;14.90;99.90
30399;DHT22;17195;50.838;7.214;2023-08-06T02:39:53;14.80;99.90
30399;DHT22;17195;50.838;7.214;2023-08-06T02:42:18;14.80;99.90
30399;DHT22;17195;50.838;7.214;2023-08-06T02:44:44;14.80;99.90
30399;DHT22;17195;50.838;7.214;2023-08-06T02:47:09;14.80;99.90
30399;DHT22;17195;50.838;7.214;2023-08-06T02:49:35;14.80;99.90
30399;DHT22;17195;50.838;7.214;2023-08-06T02:52:00;14.80;99.90
30399;DHT22;17195;50.838;7.214;2023-08-06T02:54:26;14.80;99.90
30399;DHT22;17195;50.838;7.214;2023-08-06T02:56:52;14.90;99.90
30399;DHT22;17195;50.838;7.214;2023-08-06T02:59:17;14.90;99.90
30399;DHT22;17195;50.838;7.214;2023-08-06T03:01:43;14.90;99.90
30399;DHT22;17195;50.838;7.214;2023-08-06T03:04:08;14.90;99.90
30399;DHT22;17195;50.838;7.214;2023-08-06T03:06:34;14.90;99.90
30399;DHT22;17195;50.838;7.214;2023-08-06T03:08:59;14.90;99.90
30399;DHT22;17195;50.838;7.214;2023-08-06T03:11:25;14.90;99.90
30399;DHT22;17195;50.838;7.214;2023-08-06T03:13:50;15.00;99.90
30399;DHT22;17195;50.838;7.214;2023-08-06T03:16:16;15.00;99.90
30399;DHT22;17195;50.838;7.214;2023-08-06T03:18:41;15.00;99.90
30399;DHT22;17195;50.838;7.214;2023-08-06T03:21:07;15.10;99.90
30399;DHT22;17195;50.838;7.214;2023-08-06T03:23:32;15.00;99.90
30399;DHT22;17195;50.838;7.214;2023-08-06T03:26:04;15.10;99.90
30399;DHT22;17195;50.838;7.214;2023-08-06T03:28:30;15.10;99.90
30399;DHT22;17195;50.838;7.214;2023-08-06T03:31:13;15.10;99.90
30399;DHT22;17195;50.838;7.214;2023-08-06T03:33:39;15.10;99.90
30399;DHT22;17195;50.838;7.214;2023-08-06T03:36:04;15.10;99.90
30399;DHT22;17195;50.838;7.214;2023-08-06T03:38:30;15.10;99.90
30399;DHT22;17195;50.838;7.214;2023-08-06T03:40:55;15.10;99.90
30399;DHT22;17195;50.838;7.214;2023-08-06T03:43:21;15.10;99.90
30399;DHT22;17195;50.838;7.214;2023-08-06T03:45:47;15.20;99.90
30399;DHT22;17195;50.838;7.214;2023-08-06T03:48:12;15.10;99.90
30399;DHT22;17195;50.838;7.214;2023-08-06T03:50:38;15.10;99.90
30399;DHT22;17195;50.838;7.214;2023-08-06T03:53:04;15.10;99.90
30399;DHT22;17195;50.838;7.214;2023-08-06T03:55:29;15.10;99.90
30399;DHT22;17195;50.838;7.214;2023-08-06T03:57:55;15.00;99.90
30399;DHT22;17195;50.838;7.214;2023-08-06T04:00:20;15.10;99.90
30399;DHT22;17195;50.838;7.214;2023-08-06T04:02:46;15.10;99.90
30399;DHT22;17195;50.838;7.214;2023-08-06T04:05:12;15.20;99.90
30399;DHT22;17195;50.838;7.214;2023-08-06T04:07:37;15.20;99.90
30399;DHT22;17195;50.838;7.214;2023-08-06T04:10:04;15.10;99.90
30399;DHT22;17195;50.838;7.214;2023-08-06T04:12:30;15.10;99.90
30399;DHT22;17195;50.838;7.214;2023-08-06T04:14:58;15.10;99.90
30399;DHT22;17195;50.838;7.214;2023-08-06T04:17:24;15.10;99.90
30399;DHT22;17195;50.838;7.214;2023-08-06T04:19:54;15.10;99.90
30399;DHT22;17195;50.838;7.214;2023-08-06T04:22:20;15.10;99.90
30399;DHT22;17195;50.838;7.214;2023-08-06T04:24:46;15.10;99.90
30399;DHT22;17195;50.838;7.214;2023-08-06T04:27:13;15.10;99.90
30399;DHT22;17195;50.838;7.214;2023-08-06T04:29:39;15.10;99.90
30399;DHT22;17195;50.838;7.214;2023-08-06T04:32:07;15.20;99.90
30399;DHT22;17195;50.838;7.214;2023-08-06T04:34:33;15.10;99.90
30399;DHT22;17195;50.838;7.214;2023-08-06T04:36:59;15.10;99.90
30399;DHT22;17195;50.838;7.214;2023-08-06T04:39:25;15.20;99.90
30399;DHT22;17195;50.838;7.214;2023-08-06T04:41:51;15.20;99.90
30399;DHT22;17195;50.838;7.214;2023-08-06T04:44:17;15.20;99.90
30399;DHT22;17195;50.838;7.214;2023-08-06T04:46:42;15.20;99.90
30399;DHT22;17195;50.838;7.214;2023-08-06T04:49:08;15.30;99.90
30399;DHT22;17195;50.838;7.214;2023-08-06T04:51:33;15.30;99.90
30399;DHT22;17195;50.838;7.214;2023-08-06T04:53:59;15.30;99.90
30399;DHT22;17195;50.838;7.214;2023-08-06T04:56:25;15.30;99.90
30399;DHT22;17195;50.838;7.214;2023-08-06T04:58:50;15.40;99.90
30399;DHT22;17195;50.838;7.214;2023-08-06T05:01:16;15.40;99.90
30399;DHT22;17195;50.838;7.214;2023-08-06T05:03:42;15.40;99.90
30399;DHT22;17195;50.838;7.214;2023-08-06T05:06:07;15.40;99.90
30399;DHT22;17195;50.838;7.214;2023-08-06T05:08:33;15.40;99.90
30399;DHT22;17195;50.838;7.214;2023-08-06T05:10:58;15.40;99.90
30399;DHT22;17195;50.838;7.214;2023-08-06T05:13:24;15.40;99.90
30399;DHT22;17195;50.838;7.214;2023-08-06T05:15:50;15.40;99.90
30399;DHT22;17195;50.838;7.214;2023-08-06T05:18:16;15.50;99.90
30399;DHT22;17195;50.838;7.214;2023-08-06T05:20:42;15.50;99.90
30399;DHT22;17195;50.838;7.214;2023-08-06T05:23:08;15.60;99.90
30399;DHT22;17195;50.838;7.214;2023-08-06T05:25:37;15.60;99.90
30399;DHT22;17195;50.838;7.214;2023-08-06T05:28:03;15.60;99.90
30399;DHT22;17195;50.838;7.214;2023-08-06T05:30:29;15.60;99.90
30399;DHT22;17195;50.838;7.214;2023-08-06T05:32:55;15.60;99.90
30399;DHT22;17195;50.838;7.214;2023-08-06T05:35:21;15.60;99.90
30399;DHT22;17195;50.838;7.214;2023-08-06T05:37:46;15.70;99.90
30399;DHT22;17195;50.838;7.214;2023-08-06T05:40:12;15.80;99.90
30399;DHT22;17195;50.838;7.214;2023-08-06T05:42:38;15.80;99.90
30399;DHT22;17195;50.838;7.214;2023-08-06T05:45:04;15.80;99.90
30399;DHT22;17195;50.838;7.214;2023-08-06T05:47:30;15.80;99.90
30399;DHT22;17195;50.838;7.214;2023-08-06T05:49:55;15.90;99.90
30399;DHT22;17195;50.838;7.214;2023-08-06T05:52:21;15.90;99.90
30399;DHT22;17195;50.838;7.214;2023-08-06T05:54:46;15.90;99.90
30399;DHT22;17195;50.838;7.214;2023-08-06T05:57:12;15.90;99.90
30399;DHT22;17195;50.838;7.214;2023-08-06T05:59:37;15.90;99.90
30399;DHT22;17195;50.838;7.214;2023-08-06T06:02:03;15.90;99.90
30399;DHT22;17195;50.838;7.214;2023-08-06T06:04:29;16.00;99.90
30399;DHT22;17195;50.838;7.214;2023-08-06T06:06:55;16.00;99.90
30399;DHT22;17195;50.838;7.214;2023-08-06T06:09:20;16.10;99.90
30399;DHT22;17195;50.838;7.214;2023-08-06T06:11:46;16.10;99.90
30399;DHT22;17195;50.838;7.214;2023-08-06T06:14:13;16.10;99.90
30399;DHT22;17195;50.838;7.214;2023-08-06T06:16:38;16.10;99.90
30399;DHT22;17195;50.838;7.214;2023-08-06T06:19:04;16.00;99.90
30399;DHT22;17195;50.838;7.214;2023-08-06T06:21:29;15.90;99.90
30399;DHT22;17195;50.838;7.214;2023-08-06T06:23:55;15.80;99.90
30399;DHT22;17195;50.838;7.214;2023-08-06T06:26:21;15.90;99.90
30399;DHT22;17195;50.838;7.214;2023-08-06T06:28:47;16.00;99.90
30399;DHT22;17195;50.838;7.214;2023-08-06T06:31:13;16.10;99.90
30399;DHT22;17195;50.838;7.214;2023-08-06T06:33:38;16.20;99.90
30399;DHT22;17195;50.838;7.214;2023-08-06T06:36:04;16.20;99.90
30399;DHT22;17195;50.838;7.214;2023-08-06T06:38:29;16.30;99.90
30399;DHT22;17195;50.838;7.214;2023-08-06T06:40:56;16.30;99.90
30399;DHT22;17195;50.838;7.214;2023-08-06T06:43:22;16.30;99.90
30399;DHT22;17195;50.838;7.214;2023-08-06T06:45:52;16.40;99.90
30399;DHT22;17195;50.838;7.214;2023-08-06T06:48:19;16.30;99.90
30399;DHT22;17195;50.838;7.214;2023-08-06T06:50:48;16.20;99.90
30399;DHT22;17195;50.838;7.214;2023-08-06T06:53:14;16.20;99.90
30399;DHT22;17195;50.838;7.214;2023-08-06T06:55:40;16.10;99.90
30399;DHT22;17195;50.838;7.214;2023-08-06T06:58:05;16.10;99.90
30399;DHT22;17195;50.838;7.214;2023-08-06T07:00:31;16.10;99.90
30399;DHT22;17195;50.838;7.214;2023-08-06T07:02:56;16.10;99.90
30399;DHT22;17195;50.838;7.214;2023-08-06T07:05:22;16.10;99.90
30399;DHT22;17195;50.838;7.214;2023-08-06T07:07:48;16.00;99.90
30399;DHT22;17195;50.838;7.214;2023-08-06T07:10:13;15.90;99.90
30399;DHT22;17195;50.838;7.214;2023-08-06T07:12:39;16.00;99.90
30399;DHT22;17195;50.838;7.214;2023-08-06T07:15:06;15.90;99.90
30399;DHT22;17195;50.838;7.214;2023-08-06T07:17:31;16.00;99.90
30399;DHT22;17195;50.838;7.214;2023-08-06T07:19:57;16.00;99.90
30399;DHT22;17195;50.838;7.214;2023-08-06T07:22:22;16.00;99.90
30399;DHT22;17195;50.838;7.214;2023-08-06T07:24:48;16.10;99.90
30399;DHT22;17195;50.838;7.214;2023-08-06T07:27:14;16.10;99.90
30399;DHT22;17195;50.838;7.214;2023-08-06T07:29:39;16.00;99.90
30399;DHT22;17195;50.838;7.214;2023-08-06T07:32:06;16.00;99.90
30399;DHT22;17195;50.838;7.214;2023-08-06T07:34:32;16.10;99.90
30399;DHT22;17195;50.838;7.214;2023-08-06T07:36:58;16.20;99.90
30399;DHT22;17195;50.838;7.214;2023-08-06T07:39:23;16.20;99.90
30399;DHT22;17195;50.838;7.214;2023-08-06T07:41:49;16.30;99.90
30399;DHT22;17195;50.838;7.214;2023-08-06T07:44:15;16.30;99.90
30399;DHT22;17195;50.838;7.214;2023-08-06T07:46:41;16.40;99.90
30399;DHT22;17195;50.838;7.214;2023-08-06T07:49:06;16.50;99.90
30399;DHT22;17195;50.838;7.214;2023-08-06T07:51:32;16.50;99.90
30399;DHT22;17195;50.838;7.214;2023-08-06T07:53:57;16.60;99.90
30399;DHT22;17195;50.838;7.214;2023-08-06T07:56:23;16.60;99.90
30399;DHT22;17195;50.838;7.214;2023-08-06T07:58:48;16.60;99.90
30399;DHT22;17195;50.838;7.214;2023-08-06T08:01:14;16.70;99.90
30399;DHT22;17195;50.838;7.214;2023-08-06T08:03:39;16.80;99.90
30399;DHT22;17195;50.838;7.214;2023-08-06T08:06:05;16.90;99.90
30399;DHT22;17195;50.838;7.214;2023-08-06T08:08:31;16.90;99.90
30399;DHT22;17195;50.838;7.214;2023-08-06T08:10:56;17.00;99.90
30399;DHT22;17195;50.838;7.214;2023-08-06T08:13:24;16.90;99.90
30399;DHT22;17195;50.838;7.214;2023-08-06T08:15:49;17.00;99.90
30399;DHT22;17195;50.838;7.214;2023-08-06T08:18:15;17.00;99.90
30399;DHT22;17195;50.838;7.214;2023-08-06T08:20:40;17.10;99.90
30399;DHT22;17195;50.838;7.214;2023-08-06T08:23:06;17.10;99.90
30399;DHT22;17195;50.838;7.214;2023-08-06T08:25:32;17.30;99.90
30399;DHT22;17195;50.838;7.214;2023-08-06T08:27:57;17.40;99.90
30399;DHT22;17195;50.838;7.214;2023-08-06T08:30:23;17.50;99.90
30399;DHT22;17195;50.838;7.214;2023-08-06T08:32:50;17.40;99.90
30399;DHT22;17195;50.838;7.214;2023-08-06T08:35:16;17.40;99.90
30399;DHT22;17195;50.838;7.214;2023-08-06T08:37:42;17.40;99.90
30399;DHT22;17195;50.838;7.214;2023-08-06T08:40:09;17.50;99.90
30399;DHT22;17195;50.838;7.214;2023-08-06T08:42:36;17.60;99.90
30399;DHT22;17195;50.838;7.214;2023-08-06T08:45:04;17.70;99.90
30399;DHT22;17195;50.838;7.214;2023-08-06T08:47:30;17.70;99.90
30399;DHT22;17195;50.838;7.214;2023-08-06T08:49:57;17.60;99.90
30399;DHT22;17195;50.838;7.214;2023-08-06T08:52:24;17.60;99.90
30399;DHT22;17195;50.838;7.214;2023-08-06T08:54:51;17.60;99.90
30399;DHT22;17195;50.838;7.214;2023-08-06T08:57:18;17.50;99.90
30399;DHT22;17195;50.838;7.214;2023-08-06T08:59:44;17.50;99.90
30399;DHT22;17195;50.838;7.214;2023-08-06T09:02:12;17.40;99.90
30399;DHT22;17195;50.838;7.214;2023-08-06T09:04:39;17.40;99.90
30399;DHT22;17195;50.838;7.214;2023-08-06T09:07:05;17.50;99.90
30399;DHT22;17195;50.838;7.214;2023-08-06T09:09:34;17.60;99.90
30399;DHT22;17195;50.838;7.214;2023-08-06T09:12:06;17.60;99.90
30399;DHT22;17195;50.838;7.214;2023-08-06T09:14:34;17.60;99.90
30399;DHT22;17195;50.838;7.214;2023-08-06T09:17:01;17.80;99.90
30399;DHT22;17195;50.838;7.214;2023-08-06T09:19:27;17.70;99.90
30399;DHT22;17195;50.838;7.214;2023-08-06T09:21:53;17.90;99.90
30399;DHT22;17195;50.838;7.214;2023-08-06T09:24:20;18.00;99.90
30399;DHT22;17195;50.838;7.214;2023-08-06T09:26:46;18.00;99.90
30399;DHT22;17195;50.838;7.214;2023-08-06T09:29:11;18.10;99.90
30399;DHT22;17195;50.838;7.214;2023-08-06T09:31:45;18.20;99.90
30399;DHT22;17195;50.838;7.214;2023-08-06T09:34:18;18.20;99.90
30399;DHT22;17195;50.838;7.214;2023-08-06T09:36:52;18.20;99.90
30399;DHT22;17195;50.838;7.214;2023-08-06T09:39:26;18.30;99.90
30399;DHT22;17195;50.838;7.214;2023-08-06T09:41:59;18.20;99.90
30399;DHT22;17195;50.838;7.214;2023-08-06T09:44:27;18.10;99.90
30399;DHT22;17195;50.838;7.214;2023-08-06T09:46:53;18.10;99.90
30399;DHT22;17195;50.838;7.214;2023-08-06T09:49:23;18.10;99.90
30399;DHT22;17195;50.838;7.214;2023-08-06T09:51:51;18.20;99.90
30399;DHT22;17195;50.838;7.214;2023-08-06T09:54:17;18.20;99.90
30399;DHT22;17195;50.838;7.214;2023-08-06T09:56:45;18.50;99.90
30399;DHT22;17195;50.838;7.214;2023-08-06T09:59:12;18.80;99.90
30399;DHT22;17195;50.838;7.214;2023-08-06T10:01:37;19.30;99.90
30399;DHT22;17195;50.838;7.214;2023-08-06T10:04:05;19.70;99.90
30399;DHT22;17195;50.838;7.214;2023-08-06T10:06:34;20.20;99.90
30399;DHT22;17195;50.838;7.214;2023-08-06T10:09:04;20.70;99.90
30399;DHT22;17195;50.838;7.214;2023-08-06T10:11:29;20.80;99.90
30399;DHT22;17195;50.838;7.214;2023-08-06T10:14:04;20.50;99.90
30399;DHT22;17195;50.838;7.214;2023-08-06T10:16:32;20.40;99.90
30399;DHT22;17195;50.838;7.214;2023-08-06T10:18:58;19.90;99.90
30399;DHT22;17195;50.838;7.214;2023-08-06T10:21:24;19.00;99.90
30399;DHT22;17195;50.838;7.214;2023-08-06T10:23:56;18.60;99.90
30399;DHT22;17195;50.838;7.214;2023-08-06T10:26:26;18.30;99.90
30399;DHT22;17195;50.838;7.214;2023-08-06T10:28:53;17.60;99.90
30399;DHT22;17195;50.838;7.214;2023-08-06T10:31:18;17.10;99.90
30399;DHT22;17195;50.838;7.214;2023-08-06T10:33:46;16.90;99.90
30399;DHT22;17195;50.838;7.214;2023-08-06T10:36:12;16.80;99.90
30399;DHT22;17195;50.838;7.214;2023-08-06T10:38:49;16.70;99.90
30399;DHT22;17195;50.838;7.214;2023-08-06T10:41:36;16.60;99.90
30399;DHT22;17195;50.838;7.214;2023-08-06T10:44:09;16.60;99.90
30399;DHT22;17195;50.838;7.214;2023-08-06T10:46:35;16.40;99.90
30399;DHT22;17195;50.838;7.214;2023-08-06T10:49:01;15.70;99.90
30399;DHT22;17195;50.838;7.214;2023-08-06T10:51:26;15.20;99.90
30399;DHT22;17195;50.838;7.214;2023-08-06T10:53:53;14.80;99.90
30399;DHT22;17195;50.838;7.214;2023-08-06T10:56:20;14.50;99.90
30399;DHT22;17195;50.838;7.214;2023-08-06T10:58:54;14.50;99.90
30399;DHT22;17195;50.838;7.214;2023-08-06T11:01:22;14.20;99.90
30399;DHT22;17195;50.838;7.214;2023-08-06T11:03:48;14.10;99.90
30399;DHT22;17195;50.838;7.214;2023-08-06T11:06:22;14.10;99.90
30399;DHT22;17195;50.838;7.214;2023-08-06T11:08:50;13.90;99.90
30399;DHT22;17195;50.838;7.214;2023-08-06T11:11:16;14.00;99.90
30399;DHT22;17195;50.838;7.214;2023-08-06T11:13:43;13.90;99.90
30399;DHT22;17195;50.838;7.214;2023-08-06T11:16:12;13.80;99.90
30399;DHT22;17195;50.838;7.214;2023-08-06T11:18:40;13.80;99.90
30399;DHT22;17195;50.838;7.214;2023-08-06T11:21:05;13.80;99.90
30399;DHT22;17195;50.838;7.214;2023-08-06T11:23:31;13.80;99.90
30399;DHT22;17195;50.838;7.214;2023-08-06T11:25:57;13.90;99.90
30399;DHT22;17195;50.838;7.214;2023-08-06T11:28:23;13.80;99.90
30399;DHT22;17195;50.838;7.214;2023-08-06T11:30:52;13.80;99.90
30399;DHT22;17195;50.838;7.214;2023-08-06T11:35:48;13.90;99.90
30399;DHT22;17195;50.838;7.214;2023-08-06T11:38:14;13.80;99.90
30399;DHT22;17195;50.838;7.214;2023-08-06T11:40:40;13.80;99.90
30399;DHT22;17195;50.838;7.214;2023-08-06T11:43:06;13.90;99.90
30399;DHT22;17195;50.838;7.214;2023-08-06T11:45:34;13.90;99.90
30399;DHT22;17195;50.838;7.214;2023-08-06T11:48:00;13.90;99.90
30399;DHT22;17195;50.838;7.214;2023-08-06T11:50:26;14.00;99.90
30399;DHT22;17195;50.838;7.214;2023-08-06T11:53:00;14.00;99.90
30399;DHT22;17195;50.838;7.214;2023-08-06T11:55:27;14.10;99.90
30399;DHT22;17195;50.838;7.214;2023-08-06T11:57:54;14.10;99.90
30399;DHT22;17195;50.838;7.214;2023-08-06T12:00:20;14.20;99.90
30399;DHT22;17195;50.838;7.214;2023-08-06T12:02:49;14.20;99.90
30399;DHT22;17195;50.838;7.214;2023-08-06T12:05:17;14.40;99.90
30399;DHT22;17195;50.838;7.214;2023-08-06T12:07:45;14.40;99.90
30399;DHT22;17195;50.838;7.214;2023-08-06T12:10:12;14.50;99.90
30399;DHT22;17195;50.838;7.214;2023-08-06T12:12:38;14.40;99.90
30399;DHT22;17195;50.838;7.214;2023-08-06T12:15:04;14.40;99.90
30399;DHT22;17195;50.838;7.214;2023-08-06T12:17:32;14.50;99.90
30399;DHT22;17195;50.838;7.214;2023-08-06T12:19:58;14.70;99.90
30399;DHT22;17195;50.838;7.214;2023-08-06T12:22:23;14.80;99.90
30399;DHT22;17195;50.838;7.214;2023-08-06T12:24:49;14.80;99.90
30399;DHT22;17195;50.838;7.214;2023-08-06T12:27:15;14.80;99.90
30399;DHT22;17195;50.838;7.214;2023-08-06T12:29:45;14.80;99.90
30399;DHT22;17195;50.838;7.214;2023-08-06T12:32:11;14.90;99.90
30399;DHT22;17195;50.838;7.214;2023-08-06T12:34:41;14.90;99.90
30399;DHT22;17195;50.838;7.214;2023-08-06T12:37:08;15.00;99.90
30399;DHT22;17195;50.838;7.214;2023-08-06T12:39:34;15.10;99.90
30399;DHT22;17195;50.838;7.214;2023-08-06T12:42:04;15.10;99.90
30399;DHT22;17195;50.838;7.214;2023-08-06T12:44:29;15.20;99.90
30399;DHT22;17195;50.838;7.214;2023-08-06T12:46:55;15.30;99.90
30399;DHT22;17195;50.838;7.214;2023-08-06T12:49:21;15.40;99.90
30399;DHT22;17195;50.838;7.214;2023-08-06T12:51:50;15.50;99.90
30399;DHT22;17195;50.838;7.214;2023-08-06T12:54:20;15.50;99.90
30399;DHT22;17195;50.838;7.214;2023-08-06T12:56:46;15.60;99.90
30399;DHT22;17195;50.838;7.214;2023-08-06T12:59:14;15.50;99.90
30399;DHT22;17195;50.838;7.214;2023-08-06T13:01:40;15.40;99.90
30399;DHT22;17195;50.838;7.214;2023-08-06T13:04:06;15.40;99.90
30399;DHT22;17195;50.838;7.214;2023-08-06T13:06:32;15.10;99.90
30399;DHT22;17195;50.838;7.214;2023-08-06T13:09:11;15.10;99.90
30399;DHT22;17195;50.838;7.214;2023-08-06T13:11:37;15.00;99.90
30399;DHT22;17195;50.838;7.214;2023-08-06T13:14:13;15.10;99.90
30399;DHT22;17195;50.838;7.214;2023-08-06T13:16:41;15.00;99.90
30399;DHT22;17195;50.838;7.214;2023-08-06T13:19:07;14.90;99.90
30399;DHT22;17195;50.838;7.214;2023-08-06T13:21:35;14.90;99.90
30399;DHT22;17195;50.838;7.214;2023-08-06T13:24:01;15.00;99.90
30399;DHT22;17195;50.838;7.214;2023-08-06T13:26:29;15.10;99.90
30399;DHT22;17195;50.838;7.214;2023-08-06T13:28:56;15.30;99.90
30399;DHT22;17195;50.838;7.214;2023-08-06T13:31:21;15.50;99.90
30399;DHT22;17195;50.838;7.214;2023-08-06T13:33:47;15.70;99.90
30399;DHT22;17195;50.838;7.214;2023-08-06T13:36:13;15.90;99.90
30399;DHT22;17195;50.838;7.214;2023-08-06T13:38:39;15.90;99.90
30399;DHT22;17195;50.838;7.214;2023-08-06T13:41:04;15.90;99.90
30399;DHT22;17195;50.838;7.214;2023-08-06T13:43:31;15.90;99.90
30399;DHT22;17195;50.838;7.214;2023-08-06T13:45:56;15.80;99.90
30399;DHT22;17195;50.838;7.214;2023-08-06T13:48:22;15.70;99.90
30399;DHT22;17195;50.838;7.214;2023-08-06T13:50:48;15.60;99.90
30399;DHT22;17195;50.838;7.214;2023-08-06T13:53:14;15.50;99.90
30399;DHT22;17195;50.838;7.214;2023-08-06T13:55:39;15.50;99.90
30399;DHT22;17195;50.838;7.214;2023-08-06T13:58:05;15.50;99.90
30399;DHT22;17195;50.838;7.214;2023-08-06T14:00:30;15.50;99.90
30399;DHT22;17195;50.838;7.214;2023-08-06T14:02:56;15.50;99.90
30399;DHT22;17195;50.838;7.214;2023-08-06T14:05:21;15.50;99.90
30399;DHT22;17195;50.838;7.214;2023-08-06T14:07:47;15.20;99.90
30399;DHT22;17195;50.838;7.214;2023-08-06T14:10:13;14.90;99.90
30399;DHT22;17195;50.838;7.214;2023-08-06T14:12:38;14.90;99.90
30399;DHT22;17195;50.838;7.214;2023-08-06T14:15:04;14.90;99.90
30399;DHT22;17195;50.838;7.214;2023-08-06T14:17:30;14.90;99.90
30399;DHT22;17195;50.838;7.214;2023-08-06T14:19:55;14.90;99.90
30399;DHT22;17195;50.838;7.214;2023-08-06T14:22:22;14.90;99.90
30399;DHT22;17195;50.838;7.214;2023-08-06T14:24:47;14.80;99.90
30399;DHT22;17195;50.838;7.214;2023-08-06T14:27:13;14.70;99.90
30399;DHT22;17195;50.838;7.214;2023-08-06T14:29:38;14.70;99.90
30399;DHT22;17195;50.838;7.214;2023-08-06T14:32:04;14.60;99.90
30399;DHT22;17195;50.838;7.214;2023-08-06T14:34:30;14.70;99.90
30399;DHT22;17195;50.838;7.214;2023-08-06T14:36:55;14.70;99.90
30399;DHT22;17195;50.838;7.214;2023-08-06T14:39:21;14.70;99.90
30399;DHT22;17195;50.838;7.214;2023-08-06T14:41:46;14.80;99.90
30399;DHT22;17195;50.838;7.214;2023-08-06T14:44:12;14.80;99.90
30399;DHT22;17195;50.838;7.214;2023-08-06T14:46:38;15.00;99.90
30399;DHT22;17195;50.838;7.214;2023-08-06T14:49:03;15.20;99.90
30399;DHT22;17195;50.838;7.214;2023-08-06T14:51:29;15.40;99.90
30399;DHT22;17195;50.838;7.214;2023-08-06T14:53:54;15.50;99.90
30399;DHT22;17195;50.838;7.214;2023-08-06T14:56:20;15.60;99.90
30399;DHT22;17195;50.838;7.214;2023-08-06T14:58:45;15.60;99.90
30399;DHT22;17195;50.838;7.214;2023-08-06T15:01:12;15.60;99.90
30399;DHT22;17195;50.838;7.214;2023-08-06T15:03:38;15.50;99.90
30399;DHT22;17195;50.838;7.214;2023-08-06T15:06:03;15.60;99.90
30399;DHT22;17195;50.838;7.214;2023-08-06T15:08:29;15.50;99.90
30399;DHT22;17195;50.838;7.214;2023-08-06T15:10:54;15.50;99.90
30399;DHT22;17195;50.838;7.214;2023-08-06T15:13:20;15.60;99.90
30399;DHT22;17195;50.838;7.214;2023-08-06T15:15:47;15.60;99.90
30399;DHT22;17195;50.838;7.214;2023-08-06T15:18:13;15.70;99.90
30399;DHT22;17195;50.838;7.214;2023-08-06T15:20:38;15.70;99.90
30399;DHT22;17195;50.838;7.214;2023-08-06T15:23:04;15.80;99.90
30399;DHT22;17195;50.838;7.214;2023-08-06T15:25:29;15.90;99.90
30399;DHT22;17195;50.838;7.214;2023-08-06T15:27:55;15.90;99.90
30399;DHT22;17195;50.838;7.214;2023-08-06T15:30:20;16.00;99.90
30399;DHT22;17195;50.838;7.214;2023-08-06T15:32:47;16.20;99.90
30399;DHT22;17195;50.838;7.214;2023-08-06T15:35:13;16.30;99.90